createdAt,value
2022-11-19T00:00:05.329Z,20.93
2022-11-19T00:03:09.863Z,20.93
2022-11-19T00:06:14.303Z,20.92
2022-11-19T00:09:17.385Z,20.91
2022-11-19T00:12:38.080Z,20.91
2022-11-19T00:15:41.846Z,20.91
2022-11-19T00:18:46.216Z,20.92
2022-11-19T00:21:50.217Z,20.91
2022-11-19T00:24:53.159Z,20.91
2022-11-19T00:27:57.718Z,20.91
2022-11-19T00:31:06.358Z,20.90
2022-11-19T00:34:11.985Z,20.90
2022-11-19T00:37:14.977Z,20.88
2022-11-19T00:40:18.221Z,20.89
2022-11-19T00:43:38.781Z,20.89
2022-11-19T00:46:41.703Z,20.89
2022-11-19T00:49:46.112Z,20.89
2022-11-19T00:52:49.147Z,20.89
2022-11-19T00:55:52.130Z,20.90
2022-11-19T00:58:55.783Z,20.90
2022-11-19T01:01:58.798Z,20.91
2022-11-19T01:05:03.135Z,20.90
2022-11-19T01:08:06.471Z,20.91
2022-11-19T01:11:12.812Z,20.92
2022-11-19T01:14:15.950Z,20.91
2022-11-19T01:17:19.039Z,20.90
2022-11-19T01:20:23.549Z,20.91
2022-11-19T01:23:26.606Z,20.91
2022-11-19T01:26:30.450Z,20.91
2022-11-19T01:29:33.375Z,20.92
2022-11-19T01:32:36.302Z,20.93
2022-11-19T01:35:40.714Z,20.93
2022-11-19T01:38:44.302Z,20.94
2022-11-19T01:41:47.274Z,20.95
2022-11-19T01:45:03.985Z,20.95
2022-11-19T01:48:10.944Z,20.94
2022-11-19T01:51:21.822Z,20.94
2022-11-19T01:54:30.243Z,20.95
2022-11-19T01:57:33.474Z,20.94
2022-11-19T02:00:36.786Z,20.95
2022-11-19T02:03:40.709Z,20.95
2022-11-19T02:06:46.047Z,20.95
2022-11-19T02:09:50.195Z,20.95
2022-11-19T02:13:04.138Z,20.96
2022-11-19T02:16:12.558Z,20.95
2022-11-19T02:19:37.548Z,20.96
2022-11-19T02:23:02.623Z,20.95
2022-11-19T02:26:43.807Z,20.96
2022-11-19T02:30:09.870Z,20.97
2022-11-19T02:33:23.168Z,20.96
2022-11-19T02:36:29.638Z,20.96
2022-11-19T02:39:40.194Z,20.95
2022-11-19T02:42:51.056Z,20.94
2022-11-19T02:46:00.339Z,20.94
2022-11-19T02:49:04.128Z,20.94
2022-11-19T02:52:08.580Z,20.94
2022-11-19T02:55:13.791Z,20.94
2022-11-19T02:58:37.085Z,20.96
2022-11-19T03:02:02.882Z,20.94
2022-11-19T03:05:09.921Z,20.94
2022-11-19T03:08:12.947Z,20.94
2022-11-19T03:11:22.254Z,20.94
2022-11-19T03:14:48.222Z,20.94
2022-11-19T03:18:04.062Z,20.93
2022-11-19T03:21:12.825Z,20.93
2022-11-19T03:24:21.733Z,20.92
2022-11-19T03:27:29.073Z,20.93
2022-11-19T03:30:32.678Z,20.93
2022-11-19T03:33:41.547Z,20.95
2022-11-19T03:36:47.349Z,20.93
2022-11-19T03:39:52.381Z,20.93
2022-11-19T03:42:57.326Z,20.94
2022-11-19T03:46:04.313Z,20.94
2022-11-19T03:49:12.454Z,20.94
2022-11-19T03:52:18.505Z,20.93
2022-11-19T03:55:25.119Z,20.93
2022-11-19T03:58:29.624Z,20.93
2022-11-19T04:01:33.697Z,20.94
2022-11-19T04:04:38.777Z,20.95
2022-11-19T04:07:41.852Z,20.96
2022-11-19T04:10:44.937Z,20.96
2022-11-19T04:13:47.934Z,20.97
2022-11-19T04:16:50.969Z,20.97
2022-11-19T04:19:55.286Z,20.98
2022-11-19T04:22:58.307Z,21.00
2022-11-19T04:26:01.258Z,21.00
2022-11-19T04:29:04.651Z,21.00
2022-11-19T04:32:07.670Z,21.01
2022-11-19T04:35:14.064Z,21.02
2022-11-19T04:38:17.025Z,21.00
2022-11-19T04:41:20.113Z,21.00
2022-11-19T04:44:23.066Z,21.00
2022-11-19T04:47:26.197Z,21.00
2022-11-19T04:50:30.542Z,21.02
2022-11-19T04:53:33.630Z,21.00
2022-11-19T04:56:36.714Z,20.99
2022-11-19T04:59:39.647Z,20.98
2022-11-19T05:02:42.585Z,20.97
2022-11-19T05:05:47.054Z,20.97
2022-11-19T05:08:50.090Z,20.96
2022-11-19T05:11:52.995Z,20.95
2022-11-19T05:14:55.942Z,20.94
2022-11-19T05:17:58.966Z,20.94
2022-11-19T05:21:03.305Z,20.92
2022-11-19T05:24:06.777Z,20.91
2022-11-19T05:27:09.838Z,20.91
2022-11-19T05:30:13.649Z,20.91
2022-11-19T05:33:16.607Z,20.91
2022-11-19T05:36:20.895Z,20.90
2022-11-19T05:39:24.466Z,20.91
2022-11-19T05:42:27.710Z,20.90
2022-11-19T05:45:30.737Z,20.89
2022-11-19T05:48:33.761Z,20.89
2022-11-19T05:51:38.158Z,20.89
2022-11-19T05:54:41.115Z,20.89
2022-11-19T05:57:44.323Z,20.89
2022-11-19T06:00:47.364Z,20.89
2022-11-19T06:03:50.406Z,20.89
2022-11-19T06:06:54.793Z,20.90
2022-11-19T06:09:57.899Z,20.91
2022-11-19T06:13:00.858Z,20.91
2022-11-19T06:16:03.822Z,20.93
2022-11-19T06:19:06.893Z,20.93
2022-11-19T06:22:11.994Z,20.94
2022-11-19T06:25:15.236Z,20.91
2022-11-19T06:28:18.244Z,20.92
2022-11-19T06:31:21.595Z,20.93
2022-11-19T06:34:24.595Z,20.92
2022-11-19T06:37:29.074Z,20.92
2022-11-19T06:40:32.034Z,20.92
2022-11-19T06:43:35.083Z,20.93
2022-11-19T06:46:38.381Z,20.94
2022-11-19T06:49:41.451Z,20.94
2022-11-19T06:52:45.861Z,20.95
2022-11-19T06:55:48.941Z,20.94
2022-11-19T06:58:52.802Z,20.94
2022-11-19T07:01:55.811Z,20.94
2022-11-19T07:04:58.923Z,20.93
2022-11-19T07:08:03.653Z,20.93
2022-11-19T07:11:20.709Z,20.94
2022-11-19T07:14:23.881Z,20.95
2022-11-19T07:17:26.837Z,20.94
2022-11-19T07:20:29.923Z,20.94
2022-11-19T07:23:34.237Z,20.94
2022-11-19T07:26:38.454Z,20.95
2022-11-19T07:29:41.417Z,20.95
2022-11-19T07:32:45.020Z,20.95
2022-11-19T07:35:47.972Z,20.95
2022-11-19T07:38:52.903Z,20.94
2022-11-19T07:42:13.660Z,20.94
2022-11-19T07:45:17.269Z,20.92
2022-11-19T07:48:20.205Z,20.93
2022-11-19T07:51:24.073Z,20.93
2022-11-19T07:54:28.389Z,20.93
2022-11-19T07:57:31.329Z,20.93
2022-11-19T08:00:34.391Z,20.91
2022-11-19T08:03:37.463Z,20.92
2022-11-19T08:06:40.470Z,20.92
2022-11-19T08:09:44.912Z,20.93
2022-11-19T08:13:03.185Z,20.93
2022-11-19T08:16:09.287Z,20.92
2022-11-19T08:19:14.173Z,20.86
2022-11-19T08:22:17.158Z,20.80
2022-11-19T08:25:21.485Z,20.74
2022-11-19T08:28:24.477Z,20.69
2022-11-19T08:31:27.682Z,20.69
2022-11-19T08:34:32.203Z,20.77
2022-11-19T08:37:35.234Z,20.90
2022-11-19T08:40:39.739Z,21.04
2022-11-19T08:43:41.893Z,21.16
2022-11-19T08:46:45.534Z,21.24
2022-11-19T08:49:48.691Z,21.34
2022-11-19T08:52:56.613Z,21.41
2022-11-19T08:56:01.090Z,21.45
2022-11-19T08:59:04.044Z,21.48
2022-11-19T09:02:07.241Z,21.50
2022-11-19T09:05:14.553Z,21.51
2022-11-19T09:08:17.926Z,21.51
2022-11-19T09:11:23.199Z,21.52
2022-11-19T09:14:26.234Z,21.52
2022-11-19T09:17:29.256Z,21.52
2022-11-19T09:20:32.278Z,21.51
2022-11-19T09:23:37.700Z,21.50
2022-11-19T09:26:42.067Z,21.49
2022-11-19T09:29:45.037Z,21.47
2022-11-19T09:32:48.016Z,21.45
2022-11-19T09:35:51.024Z,21.43
2022-11-19T09:38:58.078Z,21.39
2022-11-19T09:42:14.844Z,21.37
2022-11-19T09:45:23.362Z,21.34
2022-11-19T09:48:35.019Z,21.31
2022-11-19T09:51:42.543Z,21.28
2022-11-19T09:54:49.600Z,21.26
2022-11-19T09:57:57.527Z,21.24
2022-11-19T10:01:01.659Z,21.21
2022-11-19T10:04:05.906Z,21.20
2022-11-19T10:07:15.879Z,21.17
2022-11-19T10:10:30.119Z,21.14
2022-11-19T10:13:47.799Z,21.13
2022-11-19T10:17:00.811Z,21.11
2022-11-19T10:20:19.789Z,21.10
2022-11-19T10:23:31.081Z,21.07
2022-11-19T10:26:36.822Z,21.07
2022-11-19T10:29:41.402Z,21.06
2022-11-19T10:32:50.719Z,21.06
2022-11-19T10:35:59.827Z,21.05
2022-11-19T10:39:09.393Z,21.06
2022-11-19T10:42:20.830Z,21.06
2022-11-19T10:45:27.149Z,21.06
2022-11-19T10:48:40.643Z,21.07
2022-11-19T10:51:43.898Z,21.07
2022-11-19T10:54:48.707Z,21.07
2022-11-19T10:58:06.848Z,21.07
2022-11-19T11:01:17.530Z,21.07
2022-11-19T11:04:23.010Z,21.07
2022-11-19T11:07:50.600Z,21.06
2022-11-19T11:10:54.166Z,21.07
2022-11-19T11:14:18.149Z,21.07
2022-11-19T11:17:25.046Z,21.08
2022-11-19T11:20:29.974Z,21.09
2022-11-19T11:23:32.954Z,21.10
2022-11-19T11:26:37.905Z,21.10
2022-11-19T11:29:40.887Z,21.12
2022-11-19T11:32:45.445Z,21.12
2022-11-19T11:35:48.517Z,21.12
2022-11-19T11:38:53.475Z,21.11
2022-11-19T11:42:07.282Z,21.11
2022-11-19T11:45:23.781Z,21.10
2022-11-19T11:48:35.738Z,21.10
2022-11-19T11:51:40.542Z,21.10
2022-11-19T11:54:56.937Z,21.10
2022-11-19T11:58:02.001Z,21.09
2022-11-19T12:01:15.800Z,21.09
2022-11-19T12:04:20.535Z,21.09
2022-11-19T12:07:38.381Z,21.09
2022-11-19T12:10:50.360Z,21.09
2022-11-19T12:14:00.215Z,21.10
2022-11-19T12:17:19.691Z,21.10
2022-11-19T12:20:33.782Z,21.08
2022-11-19T12:24:00.132Z,21.08
2022-11-19T12:27:16.421Z,21.09
2022-11-19T12:30:22.287Z,21.07
2022-11-19T12:33:39.655Z,21.07
2022-11-19T12:36:50.926Z,21.08
2022-11-19T12:39:56.832Z,21.08
2022-11-19T12:43:11.036Z,21.08
2022-11-19T12:46:22.009Z,21.09
2022-11-19T12:49:52.573Z,21.10
2022-11-19T12:53:24.723Z,21.10
2022-11-19T12:56:40.245Z,21.10
2022-11-19T13:00:01.971Z,21.10
2022-11-19T13:03:12.854Z,21.10
2022-11-19T13:06:23.462Z,21.11
2022-11-19T13:09:36.083Z,21.12
2022-11-19T13:12:43.776Z,21.11
2022-11-19T13:15:52.021Z,21.12
2022-11-19T13:19:03.290Z,21.12
2022-11-19T13:22:12.092Z,21.12
2022-11-19T13:25:21.839Z,21.13
2022-11-19T13:28:31.993Z,21.13
2022-11-19T13:31:39.809Z,21.14
2022-11-19T13:34:49.522Z,21.12
2022-11-19T13:37:59.005Z,21.12
2022-11-19T13:41:12.273Z,21.12
2022-11-19T13:44:47.623Z,21.11
2022-11-19T13:47:58.401Z,21.11
2022-11-19T13:51:09.730Z,21.11
2022-11-19T13:54:23.894Z,21.11
2022-11-19T13:57:32.070Z,21.10
2022-11-19T14:00:35.356Z,21.09
2022-11-19T14:03:55.060Z,21.10
2022-11-19T14:07:17.368Z,21.10
2022-11-19T14:10:26.849Z,21.10
2022-11-19T14:13:46.086Z,21.10
2022-11-19T14:17:08.693Z,21.10
2022-11-19T14:20:55.090Z,21.08
2022-11-19T14:24:15.338Z,21.09
2022-11-19T14:27:20.276Z,21.08
2022-11-19T14:31:05.290Z,21.09
2022-11-19T14:34:26.877Z,21.08
2022-11-19T14:37:35.821Z,21.09
2022-11-19T14:40:43.640Z,21.09
2022-11-19T14:44:10.526Z,21.11
2022-11-19T14:47:37.290Z,21.11
2022-11-19T14:50:40.414Z,21.11
2022-11-19T14:53:50.707Z,21.12
2022-11-19T14:57:03.804Z,21.11
2022-11-19T15:00:27.922Z,21.12
2022-11-19T15:03:32.701Z,21.12
2022-11-19T15:06:37.549Z,21.12
2022-11-19T15:10:02.998Z,21.13
2022-11-19T15:13:29.333Z,21.12
2022-11-19T15:16:35.601Z,21.12
2022-11-19T15:19:50.228Z,21.13
2022-11-19T15:23:06.633Z,21.13
2022-11-19T15:26:21.950Z,21.13
2022-11-19T15:29:44.294Z,21.12
2022-11-19T15:33:12.780Z,21.13
2022-11-19T15:36:33.328Z,21.12
2022-11-19T15:39:40.410Z,21.12
2022-11-19T15:42:49.182Z,21.12
2022-11-19T15:45:56.465Z,21.12
2022-11-19T15:49:07.497Z,21.11
2022-11-19T15:52:22.814Z,21.10
2022-11-19T15:55:28.794Z,21.11
2022-11-19T15:58:37.830Z,21.10
2022-11-19T16:01:42.801Z,21.11
2022-11-19T16:04:46.206Z,21.11
2022-11-19T16:07:51.582Z,21.11
2022-11-19T16:11:20.340Z,21.10
2022-11-19T16:14:42.704Z,21.10
2022-11-19T16:17:48.678Z,21.10
2022-11-19T16:20:52.593Z,21.09
2022-11-19T16:24:15.040Z,21.09
2022-11-19T16:27:23.291Z,21.09
2022-11-19T16:30:28.622Z,21.08
2022-11-19T16:33:33.465Z,21.08
2022-11-19T16:36:36.554Z,21.09
2022-11-19T16:39:42.518Z,21.09
2022-11-19T16:42:50.497Z,21.09
2022-11-19T16:45:53.631Z,21.09
2022-11-19T16:48:58.140Z,21.09
2022-11-19T16:52:03.111Z,21.10
2022-11-19T16:55:30.197Z,21.09
2022-11-19T16:58:33.658Z,21.09
2022-11-19T17:01:36.960Z,21.09
2022-11-19T17:04:41.483Z,21.09
2022-11-19T17:07:47.947Z,21.10
2022-11-19T17:11:35.197Z,21.10
2022-11-19T17:14:48.928Z,21.11
2022-11-19T17:17:53.069Z,21.12
2022-11-19T17:20:57.865Z,21.12
2022-11-19T17:24:00.886Z,21.12
2022-11-19T17:27:05.630Z,21.13
2022-11-19T17:30:11.251Z,21.12
2022-11-19T17:33:16.896Z,21.12
2022-11-19T17:36:20.367Z,21.12
2022-11-19T17:39:25.421Z,21.12
2022-11-19T17:43:02.315Z,21.12
2022-11-19T17:46:05.302Z,21.13
2022-11-19T17:49:10.020Z,21.12
2022-11-19T17:52:22.643Z,21.12
2022-11-19T17:55:26.135Z,21.12
2022-11-19T17:58:30.509Z,21.12
2022-11-19T18:01:33.571Z,21.12
2022-11-19T18:04:36.712Z,21.12
2022-11-19T18:07:39.723Z,21.12
2022-11-19T18:10:43.981Z,21.11
2022-11-19T18:13:50.622Z,21.10
2022-11-19T18:17:22.678Z,21.11
2022-11-19T18:20:25.659Z,21.10
2022-11-19T18:23:29.069Z,21.10
2022-11-19T18:26:32.050Z,21.10
2022-11-19T18:29:36.384Z,21.10
2022-11-19T18:32:39.281Z,21.10
2022-11-19T18:35:42.189Z,21.09
2022-11-19T18:38:46.030Z,21.10
2022-11-19T18:41:48.990Z,21.11
2022-11-19T18:44:52.307Z,21.10
2022-11-19T18:47:55.281Z,21.10
2022-11-19T18:50:59.441Z,21.10
2022-11-19T18:54:02.705Z,21.09
2022-11-19T18:57:05.853Z,21.09
2022-11-19T19:00:11.387Z,21.08
2022-11-19T19:03:15.432Z,21.09
2022-11-19T19:06:18.463Z,21.09
2022-11-19T19:09:21.952Z,21.08
2022-11-19T19:12:25.278Z,21.08
2022-11-19T19:15:29.638Z,21.08
2022-11-19T19:18:32.657Z,21.09
2022-11-19T19:21:35.690Z,21.10
2022-11-19T19:24:38.680Z,21.09
2022-11-19T19:27:41.693Z,21.10
2022-11-19T19:30:46.290Z,21.11
2022-11-19T19:33:49.948Z,21.10
2022-11-19T19:36:53.771Z,21.10
2022-11-19T19:39:56.861Z,21.12
2022-11-19T19:43:03.123Z,21.11
2022-11-19T19:46:10.178Z,21.11
2022-11-19T19:49:13.115Z,21.11
2022-11-19T19:52:16.037Z,21.13
2022-11-19T19:55:19.186Z,21.14
2022-11-19T19:58:27.780Z,21.14
2022-11-19T20:01:34.446Z,21.15
2022-11-19T20:04:37.423Z,21.15
2022-11-19T20:07:40.755Z,21.14
2022-11-19T20:10:43.775Z,21.15
2022-11-19T20:13:47.000Z,21.14
2022-11-19T20:16:51.725Z,21.15
2022-11-19T20:19:54.746Z,21.15
2022-11-19T20:22:57.777Z,21.16
2022-11-19T20:26:02.035Z,21.16
2022-11-19T20:29:06.989Z,21.15
2022-11-19T20:32:11.458Z,21.16
2022-11-19T20:35:14.474Z,21.16
2022-11-19T20:38:17.483Z,21.16
2022-11-19T20:41:39.085Z,21.17
2022-11-19T20:44:41.996Z,21.17
2022-11-19T20:47:46.341Z,21.16
2022-11-19T20:50:49.278Z,21.17
2022-11-19T20:53:52.759Z,21.16
2022-11-19T20:56:56.946Z,21.17
2022-11-19T21:00:00.406Z,21.16
2022-11-19T21:03:04.874Z,21.18
2022-11-19T21:06:08.687Z,21.16
2022-11-19T21:09:11.744Z,21.16
2022-11-19T21:12:14.769Z,21.16
2022-11-19T21:15:17.878Z,21.15
2022-11-19T21:18:24.360Z,21.16
2022-11-19T21:21:28.459Z,21.16
2022-11-19T21:24:31.441Z,21.16
2022-11-19T21:27:34.428Z,21.16
2022-11-19T21:30:37.348Z,21.16
2022-11-19T21:33:41.814Z,21.16
2022-11-19T21:36:46.494Z,21.16
2022-11-19T21:39:49.435Z,21.15
2022-11-19T21:42:52.494Z,21.15
2022-11-19T21:45:55.582Z,21.15
2022-11-19T21:49:00.025Z,21.15
2022-11-19T21:52:03.002Z,21.16
2022-11-19T21:55:06.730Z,21.15
2022-11-19T21:58:10.966Z,21.17
2022-11-19T22:01:13.979Z,21.16
2022-11-19T22:04:18.346Z,21.16
2022-11-19T22:07:21.342Z,21.15
2022-11-19T22:10:24.364Z,21.16
2022-11-19T22:13:27.706Z,21.16
2022-11-19T22:16:31.987Z,21.16
2022-11-19T22:19:36.350Z,21.15
2022-11-19T22:22:44.955Z,21.16
2022-11-19T22:25:47.917Z,21.15
2022-11-19T22:28:51.224Z,21.17
2022-11-19T22:31:54.126Z,21.18
2022-11-19T22:34:58.495Z,21.18
2022-11-19T22:38:01.531Z,21.18
2022-11-19T22:41:07.352Z,21.19
2022-11-19T22:44:10.390Z,21.19
2022-11-19T22:47:14.591Z,21.19
2022-11-19T22:50:18.946Z,21.19
2022-11-19T22:53:22.180Z,21.19
2022-11-19T22:56:27.276Z,21.20
2022-11-19T22:59:30.261Z,21.19
2022-11-19T23:02:33.208Z,21.19
2022-11-19T23:05:37.594Z,21.20
2022-11-19T23:08:40.628Z,21.20
2022-11-19T23:12:01.335Z,21.20
2022-11-19T23:15:04.478Z,21.20
2022-11-19T23:18:07.457Z,21.19
2022-11-19T23:21:13.659Z,21.20
2022-11-19T23:24:17.366Z,21.20
2022-11-19T23:27:22.230Z,21.20
2022-11-19T23:30:25.453Z,21.19
2022-11-19T23:33:28.406Z,21.18
2022-11-19T23:36:34.803Z,21.18
2022-11-19T23:39:37.786Z,21.18
2022-11-19T23:42:40.783Z,21.18
2022-11-19T23:45:43.718Z,21.17
2022-11-19T23:48:48.534Z,21.18
2022-11-19T23:51:52.853Z,21.17
2022-11-19T23:54:55.883Z,21.17
2022-11-19T23:57:58.829Z,21.18
